createdAt,value
2018-02-03T00:02:22.248Z,7.20
2018-02-03T00:04:48.239Z,6.67
2018-02-03T00:07:14.224Z,7.20
2018-02-03T00:09:40.261Z,7.20
2018-02-03T00:12:06.235Z,6.40
2018-02-03T00:14:32.200Z,6.33
2018-02-03T00:16:58.899Z,8.63
2018-02-03T00:19:25.636Z,8.07
2018-02-03T00:21:51.576Z,7.50
2018-02-03T00:24:17.515Z,6.83
2018-02-03T00:26:43.488Z,6.37
2018-02-03T00:29:09.428Z,8.70
2018-02-03T00:31:35.444Z,6.40
2018-02-03T00:34:01.403Z,10.57
2018-02-03T00:36:27.351Z,7.30
2018-02-03T00:38:54.148Z,7.50
2018-02-03T00:41:20.095Z,7.37
2018-02-03T00:43:46.035Z,7.23
2018-02-03T00:46:12.017Z,7.00
2018-02-03T00:48:38.716Z,8.83
2018-02-03T00:51:04.711Z,7.70
2018-02-03T00:53:30.647Z,8.17
2018-02-03T00:55:56.642Z,10.30
2018-02-03T00:58:22.609Z,7.20
2018-02-03T01:00:49.292Z,8.60
2018-02-03T01:03:15.288Z,6.60
2018-02-03T01:05:41.980Z,7.97
2018-02-03T01:08:07.968Z,6.23
2018-02-03T01:10:33.960Z,10.00
2018-02-03T01:12:59.917Z,9.77
2018-02-03T01:15:25.920Z,7.97
2018-02-03T01:17:51.929Z,7.90
2018-02-03T01:20:18.661Z,7.93
2018-02-03T01:22:44.668Z,8.33
2018-02-03T01:25:10.676Z,7.57
2018-02-03T01:27:36.667Z,7.30
2018-02-03T01:30:02.619Z,7.00
2018-02-03T01:32:29.368Z,7.07
2018-02-03T01:34:56.104Z,8.87
2018-02-03T01:37:22.109Z,6.67
2018-02-03T01:39:48.061Z,8.47
2018-02-03T01:42:14.052Z,7.50
2018-02-03T01:44:40.000Z,7.90
2018-02-03T01:47:06.041Z,6.87
2018-02-03T01:49:32.022Z,7.10
2018-02-03T01:51:58.027Z,7.70
2018-02-03T01:54:23.993Z,6.57
2018-02-03T01:56:49.945Z,7.40
2018-02-03T01:59:16.656Z,6.93
2018-02-03T02:01:42.642Z,8.03
2018-02-03T02:04:09.350Z,7.67
2018-02-03T02:06:35.381Z,6.27
2018-02-03T02:09:01.372Z,7.67
2018-02-03T02:11:28.079Z,7.03
2018-02-03T02:13:54.052Z,8.97
2018-02-03T02:16:20.766Z,7.90
2018-02-03T02:18:46.749Z,8.40
2018-02-03T02:21:13.500Z,7.07
2018-02-03T02:23:40.221Z,8.57
2018-02-03T02:26:06.277Z,7.63
2018-02-03T02:28:32.220Z,8.07
2018-02-03T02:30:58.908Z,7.00
2018-02-03T02:33:24.895Z,6.67
2018-02-03T02:35:50.900Z,8.20
2018-02-03T02:38:16.897Z,7.80
2018-02-03T02:40:43.587Z,6.80
2018-02-03T02:43:09.604Z,7.67
2018-02-03T02:45:35.656Z,7.13
2018-02-03T02:48:01.657Z,7.30
2018-02-03T02:50:28.404Z,8.30
2018-02-03T02:52:55.099Z,7.50
2018-02-03T02:55:21.071Z,8.97
2018-02-03T02:57:47.056Z,8.03
2018-02-03T03:00:13.003Z,8.47
2018-02-03T03:02:39.040Z,8.27
2018-02-03T03:05:04.997Z,7.90
2018-02-03T03:07:30.988Z,9.33
2018-02-03T03:09:56.956Z,8.07
2018-02-03T03:12:22.940Z,9.20
2018-02-03T03:14:49.627Z,8.53
2018-02-03T03:17:15.616Z,9.60
2018-02-03T03:19:41.573Z,8.77
2018-02-03T03:22:08.347Z,8.70
2018-02-03T03:24:34.393Z,8.13
2018-02-03T03:27:00.380Z,9.67
2018-02-03T03:29:26.376Z,8.63
2018-02-03T03:31:52.376Z,10.03
2018-02-03T03:34:19.084Z,12.10
2018-02-03T03:36:45.073Z,10.20
2018-02-03T03:39:11.012Z,9.80
2018-02-03T03:41:37.096Z,10.30
2018-02-03T03:44:03.124Z,9.80
2018-02-03T03:46:29.112Z,10.67
2018-02-03T03:48:55.804Z,10.23
2018-02-03T03:51:21.800Z,10.50
2018-02-03T03:53:48.515Z,9.53
2018-02-03T03:56:14.463Z,9.70
2018-02-03T03:58:40.435Z,11.87
2018-02-03T04:01:06.462Z,10.83
2018-02-03T04:03:33.187Z,10.47
2018-02-03T04:05:59.932Z,12.60
2018-02-03T04:08:25.908Z,9.67
2018-02-03T04:10:51.920Z,12.10
2018-02-03T04:13:17.868Z,9.60
2018-02-03T04:15:44.607Z,12.23
2018-02-03T04:18:10.561Z,12.50
2018-02-03T04:20:37.300Z,11.60
2018-02-03T04:23:04.052Z,9.77
2018-02-03T04:25:30.744Z,10.40
2018-02-03T04:27:56.755Z,11.53
2018-02-03T04:30:23.524Z,17.53
2018-02-03T04:32:49.512Z,10.50
2018-02-03T04:35:15.479Z,10.73
2018-02-03T04:37:42.251Z,11.33
2018-02-03T04:40:08.219Z,10.10
2018-02-03T04:42:34.403Z,11.00
2018-02-03T04:45:01.131Z,11.77
2018-02-03T04:47:27.103Z,10.57
2018-02-03T04:49:53.801Z,10.03
2018-02-03T04:52:19.793Z,10.83
2018-02-03T04:54:46.511Z,11.60
2018-02-03T04:57:12.495Z,11.30
2018-02-03T04:59:38.507Z,11.07
2018-02-03T05:02:04.520Z,10.63
2018-02-03T05:04:30.512Z,11.67
2018-02-03T05:06:56.460Z,14.00
2018-02-03T05:09:22.436Z,14.00
2018-02-03T05:11:48.427Z,11.40
2018-02-03T05:14:14.404Z,13.20
2018-02-03T05:16:40.410Z,11.80
2018-02-03T05:19:06.412Z,10.90
2018-02-03T05:21:32.396Z,12.47
2018-02-03T05:23:58.355Z,12.73
2018-02-03T05:26:24.304Z,11.03
2018-02-03T05:28:51.027Z,13.33
2018-02-03T05:31:17.024Z,11.77
2018-02-03T05:33:43.008Z,14.00
2018-02-03T05:36:08.946Z,14.63
2018-02-03T05:38:34.946Z,13.43
2018-02-03T05:41:00.901Z,15.30
2018-02-03T05:43:26.860Z,16.97
2018-02-03T05:45:52.867Z,15.60
2018-02-03T05:48:18.856Z,13.13
2018-02-03T05:50:44.820Z,14.60
2018-02-03T05:53:10.844Z,13.80
2018-02-03T05:55:36.845Z,15.13
2018-02-03T05:58:03.603Z,13.40
2018-02-03T06:00:30.296Z,13.77
2018-02-03T06:02:56.271Z,14.80
2018-02-03T06:05:22.448Z,13.77
2018-02-03T06:07:48.395Z,13.77
2018-02-03T06:10:14.376Z,15.17
2018-02-03T06:12:40.320Z,14.80
2018-02-03T06:15:06.329Z,13.90
2018-02-03T06:17:32.272Z,14.20
2018-02-03T06:19:58.227Z,15.20
2018-02-03T06:22:24.213Z,15.90
2018-02-03T06:24:50.163Z,15.63
2018-02-03T06:27:16.112Z,14.33
2018-02-03T06:29:42.108Z,16.07
2018-02-03T06:32:08.177Z,16.73
2018-02-03T06:34:34.204Z,14.70
2018-02-03T06:37:00.153Z,14.70
2018-02-03T06:39:26.156Z,16.80
2018-02-03T06:41:52.136Z,15.30
2018-02-03T06:44:18.112Z,15.50
2018-02-03T06:46:44.852Z,14.97
2018-02-03T06:49:10.807Z,17.33
2018-02-03T06:51:36.880Z,15.83
2018-02-03T06:54:02.824Z,15.30
2018-02-03T06:56:29.548Z,13.50
2018-02-03T06:58:55.541Z,15.63
2018-02-03T07:01:21.518Z,14.40
2018-02-03T07:03:47.468Z,16.87
2018-02-03T07:06:13.452Z,19.30
2018-02-03T07:08:39.423Z,16.67
2018-02-03T07:11:05.489Z,16.90
2018-02-03T07:13:31.443Z,16.70
2018-02-03T07:15:57.468Z,17.77
2018-02-03T07:18:23.491Z,21.40
2018-02-03T07:20:49.492Z,22.33
2018-02-03T07:23:16.192Z,17.10
2018-02-03T07:25:42.156Z,19.47
2018-02-03T07:28:08.175Z,21.93
2018-02-03T07:30:34.348Z,21.17
2018-02-03T07:33:01.036Z,20.60
2018-02-03T07:35:27.015Z,14.67
2018-02-03T07:37:52.971Z,15.27
2018-02-03T07:40:19.708Z,16.93
2018-02-03T07:42:45.647Z,17.07
2018-02-03T07:45:11.671Z,16.60
2018-02-03T07:47:37.663Z,20.63
2018-02-03T07:50:03.684Z,19.50
2018-02-03T07:52:29.664Z,20.77
2018-02-03T07:54:56.387Z,16.97
2018-02-03T07:57:22.400Z,17.87
2018-02-03T07:59:49.096Z,16.73
2018-02-03T08:02:15.124Z,17.00
2018-02-03T08:04:41.084Z,15.10
2018-02-03T08:07:07.095Z,16.17
2018-02-03T08:09:33.104Z,15.37
2018-02-03T08:11:59.051Z,22.47
2018-02-03T08:14:25.032Z,17.53
2018-02-03T08:16:51.025Z,19.33
2018-02-03T08:19:17.058Z,19.83
2018-02-03T08:21:43.012Z,18.23
2018-02-03T08:24:08.996Z,14.93
2018-02-03T08:26:35.008Z,15.87
2018-02-03T08:29:00.968Z,15.50
2018-02-03T08:31:26.944Z,17.90
2018-02-03T08:33:52.923Z,18.43
2018-02-03T08:36:18.912Z,15.83
2018-02-03T08:38:44.875Z,17.40
2018-02-03T08:41:10.868Z,15.87
2018-02-03T08:43:37.632Z,16.17
2018-02-03T08:46:03.596Z,18.63
2018-02-03T08:48:29.552Z,18.70
2018-02-03T08:50:55.525Z,17.90
2018-02-03T08:53:22.268Z,14.47
2018-02-03T08:55:48.988Z,18.67
2018-02-03T08:58:14.943Z,17.00
2018-02-03T09:00:40.975Z,16.50
2018-02-03T09:03:07.081Z,20.47
2018-02-03T09:05:33.075Z,20.67
2018-02-03T09:07:59.854Z,14.90
2018-02-03T09:10:25.856Z,15.10
2018-02-03T09:12:51.913Z,16.27
2018-02-03T09:15:17.912Z,15.97
2018-02-03T09:17:43.911Z,14.20
2018-02-03T09:20:09.940Z,16.40
2018-02-03T09:22:36.133Z,17.70
2018-02-03T09:25:02.189Z,13.60
2018-02-03T09:27:28.977Z,15.57
2018-02-03T09:29:55.000Z,17.40
2018-02-03T09:32:21.034Z,15.00
2018-02-03T09:34:47.828Z,17.17
2018-02-03T09:37:13.780Z,16.27
2018-02-03T09:39:39.725Z,10.00
2018-02-03T09:42:05.780Z,13.23
2018-02-03T09:44:32.479Z,11.70
2018-02-03T09:46:58.492Z,12.90
2018-02-03T09:49:24.448Z,13.10
2018-02-03T09:51:50.436Z,12.90
2018-02-03T09:54:16.399Z,12.67
2018-02-03T09:56:42.399Z,14.00
2018-02-03T09:59:08.470Z,13.10
2018-02-03T10:01:34.526Z,13.20
2018-02-03T10:04:00.486Z,13.90
2018-02-03T10:06:26.492Z,13.53
2018-02-03T10:08:52.479Z,13.20
2018-02-03T10:11:18.476Z,14.30
2018-02-03T10:13:44.427Z,11.80
2018-02-03T10:16:10.396Z,10.50
2018-02-03T10:18:36.453Z,12.27
2018-02-03T10:21:02.421Z,11.60
2018-02-03T10:23:28.508Z,17.13
2018-02-03T10:25:55.211Z,11.40
2018-02-03T10:28:21.183Z,8.53
2018-02-03T10:30:47.180Z,7.87
2018-02-03T10:33:13.155Z,9.47
2018-02-03T10:35:39.200Z,10.00
2018-02-03T10:38:05.228Z,9.13
2018-02-03T10:40:31.172Z,9.00
2018-02-03T10:42:57.155Z,11.10
2018-02-03T10:45:23.111Z,12.13
2018-02-03T10:47:49.138Z,10.50
2018-02-03T10:50:15.096Z,7.90
2018-02-03T10:52:41.080Z,7.40
2018-02-03T10:55:07.840Z,7.73
2018-02-03T10:57:33.864Z,9.63
2018-02-03T10:59:59.855Z,11.27
2018-02-03T11:02:25.803Z,7.50
2018-02-03T11:04:51.820Z,8.97
2018-02-03T11:07:17.784Z,9.27
2018-02-03T11:09:43.734Z,8.60
2018-02-03T11:12:09.768Z,12.60
2018-02-03T11:14:36.511Z,10.30
2018-02-03T11:17:02.563Z,9.93
2018-02-03T11:19:29.272Z,10.70
2018-02-03T11:21:55.316Z,10.33
2018-02-03T11:24:21.301Z,11.00
2018-02-03T11:26:47.996Z,16.00
2018-02-03T11:29:13.983Z,11.70
2018-02-03T11:31:40.693Z,11.90
2018-02-03T11:34:06.701Z,12.83
2018-02-03T11:36:32.665Z,14.20
2018-02-03T11:38:58.703Z,13.00
2018-02-03T11:41:24.652Z,13.10
2018-02-03T11:43:50.650Z,16.17
2018-02-03T11:46:16.633Z,11.97
2018-02-03T11:48:42.611Z,14.23
2018-02-03T11:51:08.596Z,14.10
2018-02-03T11:53:34.659Z,13.60
2018-02-03T11:56:01.392Z,16.93
2018-02-03T11:58:27.424Z,13.93
2018-02-03T12:00:53.408Z,14.90
2018-02-03T12:03:19.380Z,11.17
2018-02-03T12:05:45.431Z,12.40
2018-02-03T12:08:11.386Z,13.20
2018-02-03T12:10:37.400Z,11.77
2018-02-03T12:13:03.368Z,15.60
2018-02-03T12:15:30.107Z,12.67
2018-02-03T12:17:56.100Z,12.90
2018-02-03T12:20:22.089Z,11.00
2018-02-03T12:22:48.848Z,12.60
2018-02-03T12:25:15.544Z,13.13
2018-02-03T12:27:41.594Z,12.23
2018-02-03T12:30:07.592Z,11.33
2018-02-03T12:32:33.547Z,13.00
2018-02-03T12:35:00.407Z,11.43
2018-02-03T12:37:27.275Z,11.67
2018-02-03T12:39:53.248Z,16.33
2018-02-03T12:42:19.228Z,10.73
2018-02-03T12:44:45.198Z,13.17
2018-02-03T12:47:11.152Z,12.40
2018-02-03T12:49:37.224Z,11.27
2018-02-03T12:52:03.248Z,11.93
2018-02-03T12:54:29.999Z,13.30
2018-02-03T12:56:56.711Z,11.77
2018-02-03T12:59:22.724Z,13.43
2018-02-03T13:01:48.764Z,14.57
2018-02-03T13:04:14.732Z,15.23
2018-02-03T13:06:40.724Z,12.37
2018-02-03T13:09:06.754Z,16.33
2018-02-03T13:11:32.708Z,13.57
2018-02-03T13:13:58.708Z,14.33
2018-02-03T13:16:25.396Z,16.77
2018-02-03T13:18:51.382Z,12.80
2018-02-03T13:21:18.102Z,15.27
2018-02-03T13:23:44.067Z,15.23
2018-02-03T13:26:10.087Z,16.33
2018-02-03T13:28:36.061Z,14.30
2018-02-03T13:31:02.065Z,13.10
2018-02-03T13:33:28.025Z,12.07
2018-02-03T13:35:54.736Z,13.10
2018-02-03T13:38:20.713Z,15.93
2018-02-03T13:40:47.404Z,13.70
2018-02-03T13:43:13.361Z,14.43
2018-02-03T13:45:39.383Z,14.77
2018-02-03T13:48:05.349Z,15.60
2018-02-03T13:50:32.142Z,14.27
2018-02-03T13:52:58.144Z,13.67
2018-02-03T13:55:24.164Z,14.53
2018-02-03T13:57:50.120Z,13.60
2018-02-03T14:00:16.120Z,14.27
2018-02-03T14:02:42.068Z,16.00
2018-02-03T14:05:08.077Z,14.67
2018-02-03T14:07:34.111Z,15.70
2018-02-03T14:10:00.094Z,15.67
2018-02-03T14:12:26.104Z,12.73
2018-02-03T14:14:52.312Z,13.10
2018-02-03T14:17:18.310Z,16.27
2018-02-03T14:19:44.324Z,16.63
2018-02-03T14:22:10.299Z,11.73
2018-02-03T14:24:43.287Z,15.13
2018-02-03T14:27:09.401Z,12.90
2018-02-03T14:29:35.413Z,18.83
2018-02-03T14:32:01.441Z,12.30
2018-02-03T14:34:27.397Z,13.97
2018-02-03T14:36:53.428Z,14.17
2018-02-03T14:39:19.408Z,14.70
2018-02-03T14:41:45.361Z,13.30
2018-02-03T14:44:12.087Z,13.33
2018-02-03T14:46:38.086Z,11.83
2018-02-03T14:49:04.084Z,12.97
2018-02-03T14:51:30.792Z,13.50
2018-02-03T14:53:56.775Z,15.80
2018-02-03T14:56:23.521Z,17.43
2018-02-03T14:58:51.154Z,14.67
2018-02-03T15:01:17.103Z,15.20
2018-02-03T15:03:43.856Z,13.50
2018-02-03T15:06:09.892Z,15.20
2018-02-03T15:08:35.894Z,15.03
2018-02-03T15:11:01.853Z,17.10
2018-02-03T15:13:27.944Z,14.53
2018-02-03T15:15:53.932Z,21.10
2018-02-03T15:18:19.906Z,24.50
2018-02-03T15:20:46.595Z,16.97
2018-02-03T15:23:12.584Z,15.50
2018-02-03T15:25:38.564Z,13.07
2018-02-03T15:28:04.687Z,14.00
2018-02-03T15:30:30.676Z,16.47
2018-02-03T15:32:56.812Z,14.20
2018-02-03T15:35:22.799Z,18.93
2018-02-03T15:37:49.500Z,17.30
2018-02-03T15:40:15.481Z,19.17
2018-02-03T15:42:42.180Z,15.23
2018-02-03T15:45:08.225Z,14.17
2018-02-03T15:47:34.203Z,17.80
2018-02-03T15:50:00.936Z,20.30
2018-02-03T15:52:26.892Z,14.93
2018-02-03T15:54:53.636Z,15.77
2018-02-03T15:57:19.624Z,10.67
2018-02-03T15:59:45.608Z,15.70
2018-02-03T16:02:11.607Z,13.07
2018-02-03T16:04:37.579Z,13.80
2018-02-03T16:07:03.519Z,14.20
2018-02-03T16:09:30.240Z,17.63
2018-02-03T16:11:56.225Z,17.00
2018-02-03T16:14:22.216Z,11.60
2018-02-03T16:16:48.201Z,13.33
2018-02-03T16:19:14.164Z,13.30
2018-02-03T16:21:40.188Z,15.50
2018-02-03T16:24:06.151Z,12.23
2018-02-03T16:26:32.157Z,12.17
2018-02-03T16:28:58.218Z,13.63
2018-02-03T16:31:24.225Z,16.13
2018-02-03T16:33:50.200Z,17.77
2018-02-03T16:36:16.212Z,16.00
2018-02-03T16:38:42.200Z,18.20
2018-02-03T16:41:08.896Z,22.87
2018-02-03T16:43:34.912Z,19.87
2018-02-03T16:46:00.884Z,22.80
2018-02-03T16:48:27.645Z,25.33
2018-02-03T16:50:53.730Z,25.20
2018-02-03T16:53:19.694Z,25.60
2018-02-03T16:55:45.648Z,23.70
2018-02-03T16:58:11.633Z,21.90
2018-02-03T17:00:38.380Z,24.23
2018-02-03T17:03:05.071Z,24.43
2018-02-03T17:05:31.021Z,24.50
2018-02-03T17:07:57.041Z,21.00
2018-02-03T17:10:23.048Z,21.43
2018-02-03T17:12:49.844Z,21.40
2018-02-03T17:15:15.863Z,15.30
2018-02-03T17:17:42.547Z,18.97
2018-02-03T17:20:08.507Z,18.20
2018-02-03T17:22:35.240Z,19.50
2018-02-03T17:25:01.945Z,16.43
2018-02-03T17:27:28.020Z,18.43
2018-02-03T17:29:54.073Z,16.07
2018-02-03T17:32:20.067Z,19.80
2018-02-03T17:34:46.037Z,16.07
2018-02-03T17:37:18.208Z,19.70
2018-02-03T17:39:44.903Z,17.77
2018-02-03T17:42:11.612Z,17.70
2018-02-03T17:44:37.580Z,22.50
2018-02-03T17:47:05.375Z,17.23
2018-02-03T17:49:32.067Z,17.83
2018-02-03T17:51:58.121Z,16.93
2018-02-03T17:54:24.129Z,14.70
2018-02-03T17:56:56.353Z,16.10
2018-02-03T17:59:22.392Z,15.97
2018-02-03T18:01:48.376Z,18.93
2018-02-03T18:04:14.380Z,19.80
2018-02-03T18:06:46.520Z,20.20
2018-02-03T18:09:12.499Z,16.07
2018-02-03T18:11:38.452Z,14.43
2018-02-03T18:14:05.175Z,18.60
2018-02-03T18:16:31.164Z,13.93
2018-02-03T18:18:57.128Z,15.57
2018-02-03T18:21:23.172Z,13.53
2018-02-03T18:23:49.140Z,13.17
2018-02-03T18:26:15.848Z,15.17
2018-02-03T18:28:41.842Z,12.53
2018-02-03T18:31:08.589Z,14.30
2018-02-03T18:33:35.276Z,13.43
2018-02-03T18:36:01.295Z,12.80
2018-02-03T18:38:27.260Z,16.77
2018-02-03T18:40:53.253Z,11.10
2018-02-03T18:43:19.992Z,10.97
2018-02-03T18:45:45.987Z,16.17
2018-02-03T18:48:11.928Z,12.00
2018-02-03T18:50:37.879Z,19.10
2018-02-03T18:53:03.843Z,23.57
2018-02-03T18:55:30.536Z,64.67
2018-02-03T18:57:56.558Z,16.20
2018-02-03T19:00:22.551Z,18.93
2018-02-03T19:02:48.540Z,15.50
2018-02-03T19:05:14.527Z,21.50
2018-02-03T19:07:40.475Z,18.80
2018-02-03T19:10:07.212Z,15.17
2018-02-03T19:12:33.185Z,16.30
2018-02-03T19:14:59.342Z,13.93
2018-02-03T19:17:25.335Z,13.50
2018-02-03T19:19:52.057Z,17.83
2018-02-03T19:22:18.013Z,16.23
2018-02-03T19:24:44.043Z,24.27
2018-02-03T19:27:09.994Z,57.60
2018-02-03T19:29:36.728Z,93.60
2018-02-03T19:32:02.696Z,57.97
2018-02-03T19:34:29.495Z,20.60
2018-02-03T19:36:55.521Z,92.07
2018-02-03T19:39:21.512Z,44.90
2018-02-03T19:41:48.244Z,37.80
2018-02-03T19:44:14.283Z,24.93
2018-02-03T19:46:40.272Z,74.97
2018-02-03T19:49:06.273Z,20.10
2018-02-03T19:51:33.028Z,19.97
2018-02-03T19:53:59.026Z,20.23
2018-02-03T19:56:25.084Z,17.67
2018-02-03T19:58:51.319Z,18.67
2018-02-03T20:01:17.336Z,18.43
2018-02-03T20:03:43.356Z,14.37
2018-02-03T20:06:09.382Z,20.97
2018-02-03T20:08:35.408Z,14.90
2018-02-03T20:11:02.251Z,14.97
2018-02-03T20:13:29.024Z,19.10
2018-02-03T20:15:55.045Z,15.50
2018-02-03T20:18:21.980Z,18.70
2018-02-03T20:20:47.979Z,16.97
2018-02-03T20:23:13.929Z,14.83
2018-02-03T20:25:39.943Z,17.37
2018-02-03T20:28:05.939Z,16.63
2018-02-03T20:30:32.678Z,16.67
2018-02-03T20:32:58.649Z,23.93
2018-02-03T20:35:24.652Z,16.33
2018-02-03T20:37:50.679Z,17.17
2018-02-03T20:40:16.639Z,18.53
2018-02-03T20:42:43.367Z,16.07
2018-02-03T20:45:09.430Z,19.90
2018-02-03T20:47:36.215Z,19.70
2018-02-03T20:50:02.215Z,18.10
2018-02-03T20:52:28.292Z,17.50
2018-02-03T20:54:54.372Z,14.73
2018-02-03T20:57:20.356Z,25.87
2018-02-03T20:59:46.355Z,16.23
2018-02-03T21:02:12.377Z,17.97
2018-02-03T21:04:38.364Z,14.80
2018-02-03T21:07:04.409Z,18.10
2018-02-03T21:09:30.356Z,19.20
2018-02-03T21:11:56.442Z,17.60
2018-02-03T21:14:22.391Z,20.20
2018-02-03T21:16:49.179Z,16.13
2018-02-03T21:19:15.132Z,22.53
2018-02-03T21:21:41.220Z,20.73
2018-02-03T21:24:07.955Z,17.07
2018-02-03T21:26:34.002Z,21.30
2018-02-03T21:29:00.035Z,19.00
2018-02-03T21:31:26.107Z,23.43
2018-02-03T21:33:52.068Z,26.50
2018-02-03T21:36:18.058Z,19.93
2018-02-03T21:38:44.768Z,17.40
2018-02-03T21:41:10.803Z,16.40
2018-02-03T21:43:36.766Z,16.57
2018-02-03T21:46:02.752Z,21.07
2018-02-03T21:48:28.779Z,21.43
2018-02-03T21:50:54.881Z,19.30
2018-02-03T21:53:20.877Z,23.70
2018-02-03T21:55:46.855Z,17.57
2018-02-03T21:58:12.889Z,19.70
2018-02-03T22:00:38.891Z,16.10
2018-02-03T22:03:04.851Z,24.73
2018-02-03T22:05:30.859Z,17.10
2018-02-03T22:07:56.906Z,15.67
2018-02-03T22:10:22.914Z,15.47
2018-02-03T22:12:48.936Z,18.77
2018-02-03T22:15:14.955Z,18.10
2018-02-03T22:17:41.706Z,17.60
2018-02-03T22:20:08.448Z,18.33
2018-02-03T22:22:34.428Z,16.20
2018-02-03T22:25:00.471Z,14.00
2018-02-03T22:27:26.542Z,17.83
2018-02-03T22:29:52.545Z,15.73
2018-02-03T22:32:18.570Z,15.33
2018-02-03T22:34:44.544Z,15.20
2018-02-03T22:37:10.520Z,14.60
2018-02-03T22:39:37.231Z,14.60
2018-02-03T22:42:03.217Z,19.87
2018-02-03T22:44:29.931Z,15.70
2018-02-03T22:46:55.923Z,18.23
2018-02-03T22:49:21.927Z,18.87
2018-02-03T22:51:47.872Z,17.03
2018-02-03T22:54:14.617Z,17.77
2018-02-03T22:56:40.608Z,15.20
2018-02-03T22:59:06.589Z,16.37
2018-02-03T23:01:32.575Z,15.23
2018-02-03T23:03:58.544Z,15.23
2018-02-03T23:06:24.627Z,18.53
2018-02-03T23:08:50.596Z,16.67
2018-02-03T23:11:16.535Z,18.23
2018-02-03T23:13:42.539Z,19.10
2018-02-03T23:16:08.502Z,17.73
2018-02-03T23:18:34.493Z,17.77
2018-02-03T23:21:01.228Z,13.97
2018-02-03T23:23:27.195Z,21.20
2018-02-03T23:25:53.153Z,18.83
2018-02-03T23:28:19.164Z,17.33
2018-02-03T23:30:45.148Z,18.53
2018-02-03T23:33:11.108Z,16.83
2018-02-03T23:35:37.064Z,16.43
2018-02-03T23:38:03.036Z,15.80
2018-02-03T23:40:28.984Z,16.47
2018-02-03T23:42:55.000Z,18.17
2018-02-03T23:45:20.956Z,17.17
2018-02-03T23:47:46.927Z,18.00
2018-02-03T23:50:13.658Z,23.73
2018-02-03T23:52:39.656Z,17.60
2018-02-03T23:55:05.604Z,20.87
2018-02-03T23:57:31.560Z,15.47
2018-02-03T23:59:57.568Z,20.60
